Airport ID:KO69
Update Time (UTC):06/12/2021 03:25
Wind Speed (Knots):3
Wind Direction (Magnetic):90
Temperature (°C):6
Dew Point (°C):6
Humidity (%):99
Altimeter (inHg):30.21
Density Altitude (Feet):
Visibility (Miles):5
Clouds (Hundreds of feet):OVC005
Present Weather:BR
METAR:METAR KO69 060320Z AUTO 15003KT 5SM BR OVC005 07/07 A3020 RMK A01

The data displayed is for advisory purposes only and is not to be used for flight planning or operations.